createdAt,value
2023-03-20T00:00:25.484Z,45.61
2023-03-20T00:01:25.478Z,46.30
2023-03-20T00:02:25.480Z,49.75
2023-03-20T00:03:25.528Z,58.14
2023-03-20T00:04:25.472Z,50.40
2023-03-20T00:05:25.480Z,47.93
2023-03-20T00:06:25.413Z,47.26
2023-03-20T00:07:25.427Z,46.49
2023-03-20T00:08:26.514Z,44.80
2023-03-20T00:09:25.409Z,43.36
2023-03-20T00:10:25.372Z,43.22
2023-03-20T00:11:25.393Z,43.55
2023-03-20T00:12:25.407Z,43.24
2023-03-20T00:13:25.390Z,47.99
2023-03-20T00:14:25.404Z,47.46
2023-03-20T00:15:25.336Z,45.46
2023-03-20T00:16:25.439Z,43.90
2023-03-20T00:17:25.286Z,45.40
2023-03-20T00:18:25.309Z,54.50
2023-03-20T00:19:25.291Z,46.41
2023-03-20T00:20:25.301Z,42.42
2023-03-20T00:21:25.320Z,42.83
2023-03-20T00:22:25.267Z,59.39
2023-03-20T00:23:25.260Z,46.65
2023-03-20T00:24:25.251Z,43.87
2023-03-20T00:25:25.247Z,48.18
2023-03-20T00:26:25.239Z,43.17
2023-03-20T00:27:25.215Z,44.45
2023-03-20T00:28:25.197Z,48.06
2023-03-20T00:29:25.210Z,46.06
2023-03-20T00:30:25.185Z,42.51
2023-03-20T00:31:25.255Z,42.82
2023-03-20T00:32:25.176Z,44.32
2023-03-20T00:33:25.156Z,48.23
2023-03-20T00:34:25.144Z,49.32
2023-03-20T00:35:25.129Z,48.54
2023-03-20T00:36:25.115Z,45.53
2023-03-20T00:37:25.095Z,47.86
2023-03-20T00:38:25.087Z,45.71
2023-03-20T00:39:25.102Z,46.17
2023-03-20T00:40:25.069Z,44.52
2023-03-20T00:41:25.088Z,43.80
2023-03-20T00:42:25.086Z,51.04
2023-03-20T00:43:25.048Z,43.55
2023-03-20T00:44:25.076Z,55.20
2023-03-20T00:45:25.035Z,43.82
2023-03-20T00:46:25.060Z,45.20
2023-03-20T00:47:25.025Z,46.19
2023-03-20T00:48:25.004Z,45.94
2023-03-20T00:49:24.997Z,57.55
2023-03-20T00:50:24.996Z,44.90
2023-03-20T00:51:24.977Z,43.59
2023-03-20T00:52:24.994Z,62.92
2023-03-20T00:53:24.954Z,49.65
2023-03-20T00:54:24.943Z,50.62
2023-03-20T00:55:24.940Z,44.21
2023-03-20T00:56:24.917Z,46.36
2023-03-20T00:57:24.921Z,44.41
2023-03-20T00:58:24.907Z,44.89
2023-03-20T00:59:24.885Z,45.42
2023-03-20T01:00:25.898Z,43.28
2023-03-20T01:01:24.921Z,43.08
2023-03-20T01:02:24.920Z,42.65
2023-03-20T01:03:24.872Z,48.77
2023-03-20T01:04:24.833Z,45.48
2023-03-20T01:05:24.820Z,45.24
2023-03-20T01:06:24.814Z,43.59
2023-03-20T01:07:24.897Z,58.36
2023-03-20T01:08:24.851Z,46.72
2023-03-20T01:09:24.779Z,49.66
2023-03-20T01:10:24.837Z,45.14
2023-03-20T01:11:24.816Z,43.37
2023-03-20T01:12:24.750Z,43.40
2023-03-20T01:13:24.771Z,43.57
2023-03-20T01:14:24.730Z,52.01
2023-03-20T01:15:24.754Z,47.95
2023-03-20T01:16:24.802Z,44.46
2023-03-20T01:17:24.734Z,44.42
2023-03-20T01:18:24.699Z,52.49
2023-03-20T01:19:24.703Z,43.44
2023-03-20T01:20:24.676Z,44.78
2023-03-20T01:21:24.668Z,48.67
2023-03-20T01:22:24.702Z,46.80
2023-03-20T01:23:24.651Z,44.54
2023-03-20T01:24:24.631Z,48.44
2023-03-20T01:25:24.625Z,49.13
2023-03-20T01:26:24.656Z,44.78
2023-03-20T01:27:24.607Z,46.70
2023-03-20T01:28:24.620Z,44.85
2023-03-20T01:29:24.643Z,52.36
2023-03-20T01:30:24.579Z,45.13
2023-03-20T01:31:24.576Z,50.26
2023-03-20T01:32:24.575Z,44.21
2023-03-20T01:33:24.586Z,44.89
2023-03-20T01:34:24.543Z,43.88
2023-03-20T01:35:24.530Z,48.32
2023-03-20T01:36:24.529Z,46.40
2023-03-20T01:37:24.500Z,44.29
2023-03-20T01:38:24.566Z,44.26
2023-03-20T01:39:24.527Z,49.40
2023-03-20T01:40:24.495Z,45.03
2023-03-20T01:41:24.485Z,46.97
2023-03-20T01:42:24.452Z,47.33
2023-03-20T01:43:24.440Z,49.40
2023-03-20T01:44:24.465Z,53.60
2023-03-20T01:45:24.434Z,43.54
2023-03-20T01:46:24.474Z,50.07
2023-03-20T01:47:24.408Z,61.79
2023-03-20T01:48:24.399Z,47.20
2023-03-20T01:49:24.378Z,50.49
2023-03-20T01:50:24.378Z,42.59
2023-03-20T01:51:24.388Z,52.55
2023-03-20T01:52:50.286Z,47.00
2023-03-20T01:53:24.354Z,48.14
2023-03-20T01:54:24.336Z,44.74
2023-03-20T01:55:24.318Z,60.52
2023-03-20T01:56:24.309Z,47.19
2023-03-20T01:57:24.321Z,50.10
2023-03-20T01:58:24.311Z,53.84
2023-03-20T01:59:24.277Z,43.86
2023-03-20T02:00:24.262Z,45.86
2023-03-20T02:01:24.308Z,47.07
2023-03-20T02:02:24.267Z,48.22
2023-03-20T02:03:24.253Z,52.79
2023-03-20T02:04:24.310Z,48.23
2023-03-20T02:05:24.226Z,45.00
2023-03-20T02:06:24.218Z,45.40
2023-03-20T02:07:24.221Z,47.79
2023-03-20T02:08:24.218Z,46.06
2023-03-20T02:09:24.191Z,47.11
2023-03-20T02:10:24.171Z,50.78
2023-03-20T02:11:24.178Z,46.96
2023-03-20T02:12:24.202Z,50.56
2023-03-20T02:13:24.154Z,47.29
2023-03-20T02:14:24.127Z,44.03
2023-03-20T02:15:24.128Z,45.73
2023-03-20T02:16:24.152Z,51.36
2023-03-20T02:17:24.095Z,48.59
2023-03-20T02:18:24.093Z,47.36
2023-03-20T02:19:24.073Z,53.39
2023-03-20T02:20:24.097Z,47.74
2023-03-20T02:21:24.067Z,64.10
2023-03-20T02:22:24.051Z,52.37
2023-03-20T02:23:24.103Z,52.91
2023-03-20T02:24:24.037Z,48.52
2023-03-20T02:25:24.052Z,47.90
2023-03-20T02:26:24.031Z,47.97
2023-03-20T02:27:24.004Z,45.96
2023-03-20T02:28:23.996Z,46.95
2023-03-20T02:29:23.991Z,52.35
2023-03-20T02:30:23.966Z,47.33
2023-03-20T02:31:24.016Z,48.45
2023-03-20T02:32:23.968Z,48.85
2023-03-20T02:33:23.946Z,45.25
2023-03-20T02:34:23.921Z,45.48
2023-03-20T02:35:24.930Z,46.79
2023-03-20T02:36:23.918Z,53.11
2023-03-20T02:37:23.917Z,55.31
2023-03-20T02:38:23.895Z,52.27
2023-03-20T02:39:23.879Z,54.82
2023-03-20T02:40:23.862Z,60.93
2023-03-20T02:41:23.906Z,50.66
2023-03-20T02:42:23.909Z,45.32
2023-03-20T02:43:23.836Z,45.73
2023-03-20T02:44:23.835Z,45.82
2023-03-20T02:45:23.828Z,46.54
2023-03-20T02:46:23.821Z,47.99
2023-03-20T02:47:23.829Z,45.49
2023-03-20T02:48:23.781Z,60.47
2023-03-20T02:49:23.783Z,46.22
2023-03-20T02:50:23.793Z,49.08
2023-03-20T02:51:23.757Z,46.31
2023-03-20T02:52:23.750Z,46.38
2023-03-20T02:53:23.755Z,61.80
2023-03-20T02:54:23.739Z,51.77
2023-03-20T02:55:23.710Z,53.64
2023-03-20T02:56:23.709Z,53.97
2023-03-20T02:57:23.715Z,51.33
2023-03-20T02:58:23.707Z,51.35
2023-03-20T02:59:23.700Z,54.16
2023-03-20T03:00:23.669Z,50.10
2023-03-20T03:01:23.745Z,50.17
2023-03-20T03:02:23.667Z,52.10
2023-03-20T03:03:23.650Z,63.74
2023-03-20T03:04:23.655Z,48.80
2023-03-20T03:05:23.664Z,45.18
2023-03-20T03:06:23.636Z,45.50
2023-03-20T03:07:23.609Z,51.52
2023-03-20T03:08:23.592Z,50.75
2023-03-20T03:09:23.579Z,55.95
2023-03-20T03:10:23.608Z,53.79
2023-03-20T03:11:23.624Z,55.60
2023-03-20T03:12:23.547Z,50.96
2023-03-20T03:13:23.554Z,47.09
2023-03-20T03:14:23.535Z,44.95
2023-03-20T03:15:23.527Z,46.71
2023-03-20T03:16:23.640Z,51.05
2023-03-20T03:17:23.549Z,57.22
2023-03-20T03:18:23.498Z,58.05
2023-03-20T03:19:23.503Z,49.13
2023-03-20T03:20:23.486Z,47.10
2023-03-20T03:21:23.476Z,47.45
2023-03-20T03:22:23.482Z,46.05
2023-03-20T03:23:23.451Z,47.07
2023-03-20T03:24:37.172Z,48.52
2023-03-20T03:25:25.434Z,45.68
2023-03-20T03:26:23.430Z,47.12
2023-03-20T03:27:23.453Z,48.57
2023-03-20T03:28:23.415Z,47.80
2023-03-20T03:29:23.400Z,48.80
2023-03-20T03:30:23.392Z,50.15
2023-03-20T03:31:23.403Z,44.90
2023-03-20T03:32:23.349Z,49.67
2023-03-20T03:33:23.347Z,50.54
2023-03-20T03:34:23.331Z,50.79
2023-03-20T03:35:23.380Z,50.57
2023-03-20T03:36:23.333Z,46.63
2023-03-20T03:37:23.312Z,54.79
2023-03-20T03:38:23.318Z,46.70
2023-03-20T03:39:23.292Z,54.54
2023-03-20T03:40:23.276Z,62.28
2023-03-20T03:41:23.279Z,51.38
2023-03-20T03:42:23.258Z,50.84
2023-03-20T03:43:23.325Z,61.40
2023-03-20T03:44:23.235Z,52.46
2023-03-20T03:45:23.221Z,48.96
2023-03-20T03:46:23.238Z,63.36
2023-03-20T03:47:23.194Z,49.33
2023-03-20T03:48:23.221Z,52.29
2023-03-20T03:49:23.184Z,62.46
2023-03-20T03:50:23.187Z,56.21
2023-03-20T03:51:23.186Z,53.74
2023-03-20T03:52:23.187Z,65.76
2023-03-20T03:53:23.144Z,48.71
2023-03-20T03:54:23.197Z,51.79
2023-03-20T03:55:23.134Z,53.16
2023-03-20T03:56:23.201Z,53.36
2023-03-20T03:57:23.123Z,54.04
2023-03-20T03:58:23.098Z,54.23
2023-03-20T03:59:23.089Z,54.05
2023-03-20T04:00:23.089Z,57.08
2023-03-20T04:01:23.073Z,54.76
2023-03-20T04:02:23.078Z,54.63
2023-03-20T04:03:23.050Z,55.07
2023-03-20T04:04:23.102Z,54.30
2023-03-20T04:05:23.028Z,52.61
2023-03-20T04:06:23.020Z,57.61
2023-03-20T04:07:23.072Z,53.74
2023-03-20T04:08:23.004Z,54.17
2023-03-20T04:09:23.012Z,53.78
2023-03-20T04:10:22.986Z,64.54
2023-03-20T04:11:22.977Z,54.98
2023-03-20T04:12:22.985Z,57.05
2023-03-20T04:13:23.007Z,60.17
2023-03-20T04:14:22.955Z,55.48
2023-03-20T04:15:22.984Z,55.98
2023-03-20T04:16:23.007Z,53.25
2023-03-20T04:17:22.917Z,55.48
2023-03-20T04:18:23.910Z,60.59
2023-03-20T04:19:22.898Z,54.13
2023-03-20T04:20:22.927Z,53.63
2023-03-20T04:21:22.917Z,56.15
2023-03-20T04:22:22.864Z,55.00
2023-03-20T04:23:22.909Z,57.74
2023-03-20T04:24:23.857Z,54.96
2023-03-20T04:25:22.881Z,55.93
2023-03-20T04:26:22.841Z,55.84
2023-03-20T04:27:22.820Z,57.65
2023-03-20T04:28:22.820Z,56.43
2023-03-20T04:29:22.813Z,56.45
2023-03-20T04:30:22.789Z,57.38
2023-03-20T04:31:22.852Z,56.62
2023-03-20T04:32:22.763Z,65.24
2023-03-20T04:33:22.757Z,56.51
2023-03-20T04:34:22.780Z,56.39
2023-03-20T04:35:22.736Z,58.79
2023-03-20T04:36:22.781Z,57.21
2023-03-20T04:37:22.715Z,57.62
2023-03-20T04:38:22.704Z,57.05
2023-03-20T04:39:22.721Z,57.85
2023-03-20T04:40:22.697Z,58.37
2023-03-20T04:41:22.687Z,57.08
2023-03-20T04:42:22.646Z,62.86
2023-03-20T04:43:22.706Z,56.97
2023-03-20T04:44:22.671Z,60.45
2023-03-20T04:45:22.638Z,57.00
2023-03-20T04:46:22.787Z,59.21
2023-03-20T04:47:22.611Z,57.42
2023-03-20T04:48:22.616Z,55.86
2023-03-20T04:49:22.622Z,57.52
2023-03-20T04:50:22.589Z,59.60
2023-03-20T04:51:22.615Z,57.25
2023-03-20T04:52:22.566Z,56.90
2023-03-20T04:53:22.553Z,58.20
2023-03-20T04:54:23.538Z,62.88
2023-03-20T04:55:22.558Z,55.93
2023-03-20T04:56:22.566Z,57.17
2023-03-20T04:57:22.545Z,56.69
2023-03-20T04:58:22.512Z,57.16
2023-03-20T04:59:22.505Z,57.95
2023-03-20T05:00:22.489Z,56.96
2023-03-20T05:01:22.524Z,55.73
2023-03-20T05:02:22.463Z,57.94
2023-03-20T05:03:24.040Z,55.34
2023-03-20T05:04:23.563Z,56.25
2023-03-20T05:05:22.452Z,56.79
2023-03-20T05:06:22.467Z,57.62
2023-03-20T05:07:22.439Z,56.13
2023-03-20T05:08:22.417Z,55.72
2023-03-20T05:09:22.415Z,55.96
2023-03-20T05:10:22.394Z,58.09
2023-03-20T05:11:22.382Z,58.24
2023-03-20T05:12:22.361Z,58.73
2023-03-20T05:13:22.363Z,57.54
2023-03-20T05:14:22.368Z,58.23
2023-03-20T05:15:22.335Z,56.52
2023-03-20T05:16:22.424Z,55.99
2023-03-20T05:17:22.308Z,55.89
2023-03-20T05:18:22.324Z,58.36
2023-03-20T05:19:22.359Z,62.61
2023-03-20T05:20:22.299Z,58.09
2023-03-20T05:21:22.291Z,54.78
2023-03-20T05:22:22.265Z,57.91
2023-03-20T05:23:22.269Z,57.28
2023-03-20T05:24:22.262Z,57.16
2023-03-20T05:25:22.286Z,58.59
2023-03-20T05:26:22.241Z,61.08
2023-03-20T05:27:22.215Z,57.58
2023-03-20T05:28:22.205Z,56.41
2023-03-20T05:29:22.196Z,58.10
2023-03-20T05:30:22.201Z,57.60
2023-03-20T05:31:22.245Z,57.28
2023-03-20T05:32:22.166Z,58.88
2023-03-20T05:33:22.178Z,58.22
2023-03-20T05:34:22.208Z,57.69
2023-03-20T05:35:22.139Z,70.03
2023-03-20T05:36:22.164Z,59.34
2023-03-20T05:37:22.120Z,59.11
2023-03-20T05:38:22.113Z,67.60
2023-03-20T05:39:22.104Z,65.72
2023-03-20T05:40:22.109Z,58.95
2023-03-20T05:41:22.089Z,56.61
2023-03-20T05:42:22.089Z,58.05
2023-03-20T05:43:22.056Z,59.61
2023-03-20T05:44:22.059Z,64.06
2023-03-20T05:45:22.048Z,60.99
2023-03-20T05:46:22.042Z,59.73
2023-03-20T05:47:24.231Z,60.25
2023-03-20T05:48:22.009Z,64.37
2023-03-20T05:49:22.010Z,58.53
2023-03-20T05:50:22.027Z,58.93
2023-03-20T05:51:21.985Z,58.84
2023-03-20T05:52:21.972Z,59.67
2023-03-20T05:53:22.009Z,58.85
2023-03-20T05:54:21.948Z,60.91
2023-03-20T05:55:21.942Z,59.08
2023-03-20T05:56:22.009Z,63.18
2023-03-20T05:57:21.952Z,63.13
2023-03-20T05:58:21.938Z,60.74
2023-03-20T05:59:21.903Z,59.64
2023-03-20T06:00:21.917Z,60.07
2023-03-20T06:01:22.001Z,60.48
2023-03-20T06:02:21.928Z,59.60
2023-03-20T06:03:21.952Z,57.63
2023-03-20T06:04:21.849Z,68.33
2023-03-20T06:05:21.880Z,60.52
2023-03-20T06:06:21.836Z,59.69
2023-03-20T06:07:21.839Z,60.18
2023-03-20T06:08:21.847Z,59.29
2023-03-20T06:09:21.804Z,58.57
2023-03-20T06:10:21.787Z,64.33
2023-03-20T06:11:21.802Z,58.47
2023-03-20T06:12:21.797Z,57.96
2023-03-20T06:13:21.776Z,56.82
2023-03-20T06:14:21.773Z,57.06
2023-03-20T06:15:21.749Z,59.96
2023-03-20T06:16:21.806Z,57.54
2023-03-20T06:17:21.734Z,58.33
2023-03-20T06:18:21.740Z,57.53
2023-03-20T06:19:21.712Z,58.01
2023-03-20T06:20:21.723Z,58.27
2023-03-20T06:21:21.724Z,59.63
2023-03-20T06:22:21.673Z,58.10
2023-03-20T06:23:21.690Z,58.18
2023-03-20T06:24:21.694Z,59.87
2023-03-20T06:25:21.695Z,60.52
2023-03-20T06:26:21.637Z,60.44
2023-03-20T06:27:21.681Z,59.38
2023-03-20T06:28:21.641Z,60.30
2023-03-20T06:29:21.610Z,59.83
2023-03-20T06:30:21.598Z,60.23
2023-03-20T06:31:21.698Z,59.90
2023-03-20T06:32:21.573Z,60.27
2023-03-20T06:33:21.587Z,60.05
2023-03-20T06:34:21.558Z,60.76
2023-03-20T06:35:21.568Z,60.73
2023-03-20T06:36:21.538Z,60.27
2023-03-20T06:37:21.532Z,66.87
2023-03-20T06:38:21.549Z,61.24
2023-03-20T06:39:21.518Z,62.94
2023-03-20T06:40:21.509Z,61.09
2023-03-20T06:41:33.871Z,65.49
2023-03-20T06:42:22.484Z,64.86
2023-03-20T06:43:21.477Z,62.89
2023-03-20T06:44:21.465Z,60.44
2023-03-20T06:45:21.468Z,60.16
2023-03-20T06:46:21.482Z,65.71
2023-03-20T06:47:21.436Z,61.34
2023-03-20T06:48:21.461Z,59.54
2023-03-20T06:49:21.412Z,60.06
2023-03-20T06:50:21.440Z,59.26
2023-03-20T06:51:21.398Z,61.45
2023-03-20T06:52:21.409Z,59.59
2023-03-20T06:53:21.421Z,59.66
2023-03-20T06:54:21.410Z,61.09
2023-03-20T06:55:21.359Z,59.26
2023-03-20T06:56:21.417Z,60.12
2023-03-20T06:57:21.350Z,59.38
2023-03-20T06:58:21.331Z,64.59
2023-03-20T06:59:21.335Z,61.70
2023-03-20T07:00:21.327Z,59.24
2023-03-20T07:01:21.351Z,60.01
2023-03-20T07:02:21.294Z,56.89
2023-03-20T07:03:21.277Z,60.42
2023-03-20T07:04:21.308Z,61.70
2023-03-20T07:05:21.328Z,60.87
2023-03-20T07:06:21.253Z,57.95
2023-03-20T07:07:21.241Z,67.20
2023-03-20T07:08:21.252Z,59.50
2023-03-20T07:09:21.222Z,59.49
2023-03-20T07:10:21.299Z,58.92
2023-03-20T07:11:21.233Z,59.14
2023-03-20T07:12:21.263Z,59.48
2023-03-20T07:13:21.204Z,56.69
2023-03-20T07:14:21.192Z,55.73
2023-03-20T07:15:21.215Z,57.56
2023-03-20T07:16:21.162Z,57.12
2023-03-20T07:17:21.146Z,56.86
2023-03-20T07:18:21.186Z,59.42
2023-03-20T07:19:21.160Z,58.16
2023-03-20T07:20:21.116Z,57.53
2023-03-20T07:21:21.118Z,57.40
2023-03-20T07:22:21.118Z,58.77
2023-03-20T07:23:21.080Z,57.28
2023-03-20T07:24:21.118Z,58.15
2023-03-20T07:25:31.937Z,57.15
2023-03-20T07:26:23.077Z,57.92
2023-03-20T07:27:21.052Z,57.94
2023-03-20T07:28:21.044Z,56.12
2023-03-20T07:29:21.066Z,57.66
2023-03-20T07:30:21.023Z,55.71
2023-03-20T07:31:21.095Z,56.02
2023-03-20T07:32:20.988Z,57.97
2023-03-20T07:33:21.153Z,56.20
2023-03-20T07:34:21.068Z,59.24
2023-03-20T07:35:21.038Z,59.44
2023-03-20T07:36:20.995Z,57.60
2023-03-20T07:37:20.956Z,57.83
2023-03-20T07:38:20.935Z,56.51
2023-03-20T07:39:52.665Z,59.28
2023-03-20T07:40:22.172Z,60.69
2023-03-20T07:41:24.649Z,60.02
2023-03-20T07:42:20.905Z,60.56
2023-03-20T07:43:20.896Z,55.99
2023-03-20T07:44:20.914Z,58.25
2023-03-20T07:45:20.874Z,58.40
2023-03-20T07:46:20.950Z,60.81
2023-03-20T07:47:20.894Z,58.57
2023-03-20T07:48:20.844Z,58.52
2023-03-20T07:49:20.845Z,58.67
2023-03-20T07:50:20.851Z,59.97
2023-03-20T07:51:20.845Z,59.19
2023-03-20T07:52:20.799Z,59.84
2023-03-20T07:53:52.703Z,59.04
2023-03-20T07:54:20.776Z,59.50
2023-03-20T07:55:20.796Z,58.93
2023-03-20T07:56:20.761Z,60.58
2023-03-20T07:57:20.762Z,59.05
2023-03-20T07:58:20.750Z,59.97
2023-03-20T07:59:20.731Z,59.24
2023-03-20T08:00:20.767Z,57.46
2023-03-20T08:01:20.793Z,57.36
2023-03-20T08:02:20.709Z,54.41
2023-03-20T08:03:20.801Z,56.09
2023-03-20T08:04:20.731Z,58.58
2023-03-20T08:05:20.675Z,64.42
2023-03-20T08:06:20.707Z,58.83
2023-03-20T08:07:20.681Z,56.60
2023-03-20T08:08:20.637Z,59.18
2023-03-20T08:09:20.632Z,56.53
2023-03-20T08:10:20.664Z,58.92
2023-03-20T08:11:20.655Z,57.22
2023-03-20T08:12:20.602Z,57.66
2023-03-20T08:13:20.578Z,55.67
2023-03-20T08:14:20.597Z,59.21
2023-03-20T08:15:20.585Z,59.02
2023-03-20T08:16:20.648Z,57.70
2023-03-20T08:17:21.894Z,56.76
2023-03-20T08:18:21.544Z,56.24
2023-03-20T08:19:20.552Z,59.57
2023-03-20T08:20:20.578Z,61.92
2023-03-20T08:21:20.516Z,56.21
2023-03-20T08:22:20.543Z,57.74
2023-03-20T08:23:20.975Z,56.78
2023-03-20T08:24:21.508Z,57.82
2023-03-20T08:25:20.495Z,58.70
2023-03-20T08:26:20.469Z,56.87
2023-03-20T08:27:20.480Z,57.69
2023-03-20T08:28:20.526Z,58.07
2023-03-20T08:29:20.431Z,57.29
2023-03-20T08:30:20.440Z,55.30
2023-03-20T08:31:20.483Z,56.30
2023-03-20T08:32:20.423Z,55.24
2023-03-20T08:33:20.400Z,59.31
2023-03-20T08:34:22.872Z,56.07
2023-03-20T08:35:32.542Z,55.70
2023-03-20T08:36:22.401Z,56.21
2023-03-20T08:37:20.374Z,54.61
2023-03-20T08:38:20.485Z,59.06
2023-03-20T08:39:20.383Z,59.07
2023-03-20T08:40:20.352Z,59.66
2023-03-20T08:41:20.384Z,57.88
2023-03-20T08:42:20.308Z,57.72
2023-03-20T08:43:20.323Z,64.00
2023-03-20T08:44:20.310Z,57.46
2023-03-20T08:45:20.286Z,57.38
2023-03-20T08:46:20.296Z,58.02
2023-03-20T08:47:20.286Z,57.12
2023-03-20T08:48:20.294Z,57.76
2023-03-20T08:49:20.273Z,59.62
2023-03-20T08:50:20.239Z,57.83
2023-03-20T08:51:20.282Z,55.82
2023-03-20T08:52:20.229Z,56.85
2023-03-20T08:53:22.145Z,57.75
2023-03-20T08:54:21.190Z,57.57
2023-03-20T08:55:20.178Z,57.87
2023-03-20T08:56:20.190Z,56.56
2023-03-20T08:57:20.165Z,57.18
2023-03-20T08:58:20.184Z,56.60
2023-03-20T08:59:20.149Z,56.35
2023-03-20T09:00:20.131Z,54.75
2023-03-20T09:01:20.164Z,58.46
2023-03-20T09:02:20.268Z,58.41
2023-03-20T09:03:20.180Z,55.58
2023-03-20T09:04:20.111Z,56.49
2023-03-20T09:05:20.071Z,65.58
2023-03-20T09:06:20.102Z,59.33
2023-03-20T09:07:20.069Z,58.80
2023-03-20T09:08:20.071Z,59.79
2023-03-20T09:09:20.030Z,56.59
2023-03-20T09:10:21.032Z,59.24
2023-03-20T09:11:20.059Z,60.15
2023-03-20T09:12:20.020Z,58.67
2023-03-20T09:13:27.276Z,58.75
2023-03-20T09:14:20.997Z,57.75
2023-03-20T09:15:20.020Z,59.54
2023-03-20T09:16:20.339Z,58.22
2023-03-20T09:17:19.970Z,57.20
2023-03-20T09:18:19.958Z,61.98
2023-03-20T09:19:19.955Z,58.09
2023-03-20T09:20:19.949Z,58.83
2023-03-20T09:21:19.967Z,57.71
2023-03-20T09:22:19.926Z,58.12
2023-03-20T09:23:19.964Z,60.67
2023-03-20T09:24:19.898Z,57.02
2023-03-20T09:25:19.878Z,61.35
2023-03-20T09:26:19.996Z,57.74
2023-03-20T09:27:19.877Z,58.13
2023-03-20T09:28:19.917Z,62.17
2023-03-20T09:29:19.856Z,64.48
2023-03-20T09:30:19.851Z,61.16
2023-03-20T09:31:19.880Z,60.74
2023-03-20T09:32:19.877Z,60.34
2023-03-20T09:33:19.792Z,60.06
2023-03-20T09:34:19.813Z,60.33
2023-03-20T09:35:19.835Z,60.54
2023-03-20T09:36:19.802Z,62.25
2023-03-20T09:37:19.761Z,62.78
2023-03-20T09:38:19.839Z,63.02
2023-03-20T09:39:19.762Z,63.28
2023-03-20T09:40:19.749Z,62.66
2023-03-20T09:41:19.759Z,62.46
2023-03-20T09:42:19.758Z,63.00
2023-03-20T09:43:19.732Z,61.24
2023-03-20T09:44:19.722Z,62.59
2023-03-20T09:45:19.778Z,61.98
2023-03-20T09:46:19.724Z,60.80
2023-03-20T09:47:21.283Z,61.91
2023-03-20T09:48:20.653Z,60.15
2023-03-20T09:49:19.718Z,55.59
2023-03-20T09:50:19.641Z,57.91
2023-03-20T09:51:19.668Z,59.14
2023-03-20T09:52:19.646Z,59.36
2023-03-20T09:53:19.650Z,64.46
2023-03-20T09:54:19.618Z,66.92
2023-03-20T09:55:19.683Z,61.34
2023-03-20T09:56:19.619Z,61.27
2023-03-20T09:57:19.602Z,62.34
2023-03-20T09:58:19.639Z,62.82
2023-03-20T09:59:19.583Z,63.19
2023-03-20T10:00:19.600Z,62.50
2023-03-20T10:01:19.536Z,61.08
2023-03-20T10:02:19.539Z,61.65
2023-03-20T10:03:19.772Z,62.06
2023-03-20T10:04:19.599Z,61.75
2023-03-20T10:05:19.614Z,61.76
2023-03-20T10:06:19.537Z,62.13
2023-03-20T10:07:19.467Z,61.12
2023-03-20T10:08:19.464Z,61.96
2023-03-20T10:09:19.458Z,55.99
2023-03-20T10:10:19.441Z,58.48
2023-03-20T10:11:19.471Z,59.19
2023-03-20T10:12:19.500Z,57.38
2023-03-20T10:13:19.422Z,56.88
2023-03-20T10:14:19.404Z,58.44
2023-03-20T10:15:19.426Z,55.92
2023-03-20T10:16:19.520Z,56.95
2023-03-20T10:17:19.388Z,58.05
2023-03-20T10:18:19.374Z,57.12
2023-03-20T10:19:19.357Z,56.18
2023-03-20T10:20:19.370Z,63.08
2023-03-20T10:21:19.352Z,57.80
2023-03-20T10:22:19.419Z,60.13
2023-03-20T10:23:19.310Z,56.04
2023-03-20T10:24:19.321Z,56.70
2023-03-20T10:25:19.353Z,58.60
2023-03-20T10:26:19.413Z,61.40
2023-03-20T10:27:19.274Z,62.40
2023-03-20T10:28:19.275Z,61.70
2023-03-20T10:29:19.329Z,62.74
2023-03-20T10:30:19.237Z,61.81
2023-03-20T10:31:19.302Z,61.26
2023-03-20T10:32:19.226Z,58.22
2023-03-20T10:33:19.246Z,57.95
2023-03-20T10:34:19.214Z,61.47
2023-03-20T10:35:19.292Z,62.03
2023-03-20T10:36:19.410Z,61.64
2023-03-20T10:37:19.223Z,61.16
2023-03-20T10:38:19.194Z,60.71
2023-03-20T10:39:19.193Z,60.79
2023-03-20T10:40:19.271Z,61.95
2023-03-20T10:41:19.137Z,57.87
2023-03-20T10:42:19.137Z,58.16
2023-03-20T10:43:19.207Z,57.03
2023-03-20T10:44:19.104Z,55.74
2023-03-20T10:45:19.083Z,56.10
2023-03-20T10:46:19.208Z,56.34
2023-03-20T10:47:19.149Z,62.95
2023-03-20T10:48:19.075Z,56.61
2023-03-20T10:49:19.132Z,56.89
2023-03-20T10:50:19.078Z,53.76
2023-03-20T10:51:19.024Z,54.71
2023-03-20T10:52:19.171Z,55.02
2023-03-20T10:53:19.005Z,54.79
2023-03-20T10:54:19.034Z,58.05
2023-03-20T10:55:19.154Z,56.62
2023-03-20T10:56:19.039Z,55.58
2023-03-20T10:57:19.055Z,55.94
2023-03-20T10:58:19.068Z,58.08
2023-03-20T10:59:19.030Z,62.86
2023-03-20T11:00:19.014Z,55.10
2023-03-20T11:01:18.956Z,55.32
2023-03-20T11:02:18.934Z,55.23
2023-03-20T11:03:18.964Z,56.06
2023-03-20T11:04:19.039Z,56.82
2023-03-20T11:05:18.916Z,54.80
2023-03-20T11:06:18.919Z,55.41
2023-03-20T11:07:18.914Z,55.37
2023-03-20T11:08:18.890Z,56.16
2023-03-20T11:09:18.869Z,58.55
2023-03-20T11:10:18.843Z,57.18
2023-03-20T11:11:18.881Z,56.98
2023-03-20T11:12:18.825Z,55.43
2023-03-20T11:13:18.837Z,54.77
2023-03-20T11:14:18.893Z,56.16
2023-03-20T11:15:18.805Z,56.07
2023-03-20T11:16:18.873Z,56.53
2023-03-20T11:17:18.790Z,56.57
2023-03-20T11:18:18.813Z,58.34
2023-03-20T11:19:18.805Z,57.56
2023-03-20T11:20:18.819Z,58.41
2023-03-20T11:21:18.771Z,55.90
2023-03-20T11:22:18.729Z,55.68
2023-03-20T11:23:18.737Z,57.40
2023-03-20T11:24:18.736Z,56.24
2023-03-20T11:25:18.724Z,55.82
2023-03-20T11:26:18.720Z,56.95
2023-03-20T11:27:18.717Z,57.45
2023-03-20T11:28:18.712Z,56.88
2023-03-20T11:29:18.664Z,55.87
2023-03-20T11:30:18.730Z,57.15
2023-03-20T11:31:18.710Z,57.02
2023-03-20T11:32:18.645Z,56.26
2023-03-20T11:33:18.663Z,54.88
2023-03-20T11:34:18.710Z,55.88
2023-03-20T11:35:18.635Z,55.16
2023-03-20T11:36:18.626Z,56.43
2023-03-20T11:37:18.601Z,53.79
2023-03-20T11:38:18.574Z,52.60
2023-03-20T11:39:18.615Z,54.06
2023-03-20T11:40:19.572Z,55.04
2023-03-20T11:41:18.552Z,55.87
2023-03-20T11:42:18.554Z,54.98
2023-03-20T11:43:18.557Z,55.91
2023-03-20T11:44:18.526Z,55.44
2023-03-20T11:45:18.517Z,55.28
2023-03-20T11:46:18.527Z,56.25
2023-03-20T11:47:18.492Z,53.19
2023-03-20T11:48:18.473Z,55.36
2023-03-20T11:49:18.489Z,56.40
2023-03-20T11:50:18.458Z,55.21
2023-03-20T11:51:18.501Z,57.08
2023-03-20T11:52:18.433Z,56.18
2023-03-20T11:53:18.444Z,57.13
2023-03-20T11:54:18.449Z,52.51
2023-03-20T11:55:18.399Z,54.49
2023-03-20T11:56:18.391Z,58.36
2023-03-20T11:57:18.444Z,57.83
2023-03-20T11:58:18.380Z,57.59
2023-03-20T11:59:18.523Z,57.33
2023-03-20T12:00:18.350Z,57.72
2023-03-20T12:01:18.346Z,57.57
2023-03-20T12:02:18.376Z,63.75
2023-03-20T12:03:18.362Z,56.31
2023-03-20T12:04:18.320Z,56.57
2023-03-20T12:05:18.358Z,57.81
2023-03-20T12:06:18.299Z,64.66
2023-03-20T12:07:18.275Z,58.37
2023-03-20T12:08:18.291Z,56.57
2023-03-20T12:09:18.271Z,56.66
2023-03-20T12:10:18.300Z,61.42
2023-03-20T12:11:18.250Z,56.47
2023-03-20T12:12:18.273Z,56.91
2023-03-20T12:13:18.240Z,56.21
2023-03-20T12:14:18.217Z,56.27
2023-03-20T12:15:18.208Z,56.27
2023-03-20T12:16:18.236Z,57.60
2023-03-20T12:17:18.248Z,60.36
2023-03-20T12:18:18.199Z,57.09
2023-03-20T12:19:18.166Z,56.46
2023-03-20T12:20:18.151Z,54.95
2023-03-20T12:21:18.178Z,56.84
2023-03-20T12:22:18.159Z,55.19
2023-03-20T12:23:18.134Z,57.36
2023-03-20T12:24:18.129Z,57.47
2023-03-20T12:25:18.116Z,55.86
2023-03-20T12:26:18.113Z,55.93
2023-03-20T12:27:18.091Z,57.31
2023-03-20T12:28:18.084Z,63.81
2023-03-20T12:29:18.135Z,54.47
2023-03-20T12:30:18.075Z,60.80
2023-03-20T12:31:18.105Z,58.14
2023-03-20T12:32:18.027Z,59.30
2023-03-20T12:33:18.119Z,59.28
2023-03-20T12:34:18.052Z,60.64
2023-03-20T12:35:17.995Z,57.66
2023-03-20T12:36:17.995Z,57.21
2023-03-20T12:37:18.003Z,56.85
2023-03-20T12:38:17.970Z,56.55
2023-03-20T12:39:18.012Z,59.93
2023-03-20T12:40:17.957Z,55.65
2023-03-20T12:41:17.942Z,56.16
2023-03-20T12:42:17.927Z,56.68
2023-03-20T12:43:17.913Z,58.89
2023-03-20T12:44:17.945Z,57.56
2023-03-20T12:45:17.919Z,64.16
2023-03-20T12:46:17.959Z,55.57
2023-03-20T12:47:17.931Z,56.06
2023-03-20T12:48:17.857Z,53.81
2023-03-20T12:49:17.926Z,55.99
2023-03-20T12:50:17.885Z,53.64
2023-03-20T12:51:17.862Z,55.09
2023-03-20T12:52:17.843Z,57.70